Time;durP1;ratioP1;P1;durP2;ratioP2;P2;SDS_P1;SDS_P2;PMS_P1;PMS_P2;Temp;Humidity;BMP_temperature;BMP_pressure;BME280_temperature;BME280_humidity;BME280_pressure;Samples;Min_cycle;Max_cycle;Signal;HPM_P1;HPM_P2
2021/08/15 00:01:11;;;;;;;7.68;5.20;;;;;;;20.85;nan;100618.09;5051082;28;20493;-73
2021/08/15 00:03:37;;;;;;;6.65;4.80;;;;;;;20.70;nan;100604.97;5050870;28;20045;-73
2021/08/15 00:06:02;;;;;;;9.27;5.25;;;;;;;20.76;nan;100616.72;5050966;28;20219;-73
2021/08/15 00:08:27;;;;;;;6.07;5.25;;;;;;;20.66;nan;100609.13;5050508;28;20064;-73
2021/08/15 00:10:53;;;;;;;7.15;4.55;;;;;;;20.60;nan;100607.31;5047929;28;20041;-73
2021/08/15 00:13:18;;;;;;;7.53;5.45;;;;;;;20.58;nan;100604.84;5048981;28;20037;-73
2021/08/15 00:15:44;;;;;;;6.38;5.18;;;;;;;20.46;nan;100605.72;5050183;28;20072;-73
2021/08/15 00:18:10;;;;;;;7.05;5.38;;;;;;;20.45;nan;100609.44;5048474;28;20424;-73
2021/08/15 00:20:36;;;;;;;7.00;5.07;;;;;;;20.51;nan;100606.72;5049334;28;20033;-73
2021/08/15 00:23:07;;;;;;;8.05;5.53;;;;;;;20.55;nan;100607.97;5050092;28;20167;-73
2021/08/15 00:25:32;;;;;;;8.95;5.95;;;;;;;20.50;nan;100609.63;5049113;28;20171;-75
2021/08/15 00:27:58;;;;;;;8.48;5.72;;;;;;;20.49;nan;100602.59;5050057;28;20781;-75
2021/08/15 00:30:26;;;;;;;6.63;5.53;;;;;;;20.43;nan;100604.28;5049126;28;20040;-76
2021/08/15 00:32:52;;;;;;;6.25;5.13;;;;;;;20.43;nan;100600.78;5049605;28;20029;-76
2021/08/15 00:35:19;;;;;;;6.30;5.20;;;;;;;20.42;nan;100601.81;5048153;28;20033;-75
2021/08/15 00:37:45;;;;;;;5.85;4.60;;;;;;;20.38;nan;100601.44;5050387;28;20025;-73
2021/08/15 00:40:11;;;;;;;6.78;5.10;;;;;;;20.41;nan;100606.38;5048529;28;20036;-73
2021/08/15 00:42:41;;;;;;;6.57;4.85;;;;;;;20.41;nan;100617.13;5048725;28;20033;-76
2021/08/15 00:45:08;;;;;;;6.32;5.05;;;;;;;20.38;nan;100614.88;5049474;28;20037;-76
2021/08/15 00:47:34;;;;;;;6.38;4.95;;;;;;;20.34;nan;100611.75;5048555;28;20078;-75
2021/08/15 00:50:02;;;;;;;6.68;5.25;;;;;;;20.34;nan;100605.56;5048392;28;20036;-76
2021/08/15 00:52:30;;;;;;;6.50;4.75;;;;;;;20.32;nan;100607.66;5049624;28;20037;-76
2021/08/15 00:55:06;;;;;;;7.72;5.03;;;;;;;20.32;nan;100604.97;5048430;28;20037;-73
2021/08/15 00:57:37;;;;;;;6.07;4.88;;;;;;;20.31;nan;100603.31;5048274;28;20112;-74
2021/08/15 01:00:06;;;;;;;5.22;4.40;;;;;;;20.33;nan;100599.38;5049897;28;20033;-75
2021/08/15 01:02:37;;;;;;;6.35;5.25;;;;;;;20.34;nan;100605.56;5047831;28;21815;-75
2021/08/15 01:05:03;;;;;;;;;;;;;;;20.32;nan;100592.34;5059823;22;20250;-76
2021/08/15 01:07:29;;;;;;;7.47;5.40;;;;;;;20.21;nan;100598.38;5019432;28;19924;-75
2021/08/15 01:09:56;;;;;;;6.57;5.30;;;;;;;20.15;nan;100593.88;5031050;28;20042;-76
2021/08/15 01:12:26;;;;;;;4.93;4.18;;;;;;;20.12;nan;100592.44;5040695;28;20535;-76
2021/08/15 01:14:54;;;;;;;6.43;5.22;;;;;;;20.13;nan;100593.28;5021365;28;20550;-76
2021/08/15 01:17:22;;;;;;;5.93;4.63;;;;;;;20.06;nan;100587.91;5040123;28;20036;-76
2021/08/15 01:19:55;;;;;;;6.38;4.97;;;;;;;20.05;nan;100585.47;5023548;28;20030;-75
2021/08/15 01:22:28;;;;;;;5.38;4.72;;;;;;;20.01;nan;100593.13;5019607;28;20350;-76
2021/08/15 01:24:56;;;;;;;5.90;4.80;;;;;;;19.99;nan;100592.50;5023479;28;20268;-76
2021/08/15 01:27:22;;;;;;;7.65;5.47;;;;;;;19.94;nan;100584.25;5026665;28;20397;-76
2021/08/15 01:29:49;;;;;;;6.15;4.85;;;;;;;19.90;nan;100586.56;5035708;28;20056;-76
2021/08/15 01:32:17;;;;;;;6.25;4.60;;;;;;;19.88;nan;100591.31;5029009;28;20052;-75
2021/08/15 01:34:43;;;;;;;5.78;4.68;;;;;;;19.84;nan;100583.88;5041737;28;20109;-76
2021/08/15 01:37:11;;;;;;;8.60;5.47;;;;;;;19.78;nan;100584.72;5045795;28;20148;-76
2021/08/15 01:39:43;;;;;;;7.85;5.72;;;;;;;19.70;nan;100583.09;5026823;28;20025;-76
2021/08/15 01:42:09;;;;;;;8.60;5.80;;;;;;;19.65;nan;100582.88;5036933;28;20048;-76
2021/08/15 01:44:37;;;;;;;7.78;5.95;;;;;;;19.62;nan;100575.25;5042317;28;20525;-76
2021/08/15 01:47:03;;;;;;;6.80;5.85;;;;;;;19.53;nan;100571.97;5029301;28;20040;-76
2021/08/15 01:49:29;;;;;;;8.80;6.00;;;;;;;19.54;nan;100573.59;5023920;28;20026;-76
2021/08/15 01:51:55;;;;;;;7.70;5.65;;;;;;;19.61;nan;100569.03;5044235;28;20036;-76
2021/08/15 01:54:21;;;;;;;8.77;5.97;;;;;;;19.56;nan;100565.34;5029149;28;20363;-76
2021/08/15 01:56:48;;;;;;;6.78;5.15;;;;;;;19.57;nan;100559.78;5017185;28;20176;-76
2021/08/15 01:59:15;;;;;;;5.97;4.88;;;;;;;19.60;nan;100559.38;5028692;28;20034;-76
2021/08/15 02:01:41;;;;;;;6.57;4.72;;;;;;;19.60;nan;100556.69;5029415;28;20085;-76
2021/08/15 02:04:07;;;;;;;5.88;5.20;;;;;;;19.58;nan;100548.00;5040561;28;20068;-76
2021/08/15 02:06:32;;;;;;;6.47;5.00;;;;;;;19.63;nan;100560.81;5042012;28;20505;-75
2021/08/15 02:08:59;;;;;;;7.45;5.13;;;;;;;19.53;nan;100558.56;5042941;28;20067;-75
2021/08/15 02:11:25;;;;;;;6.82;5.13;;;;;;;19.50;nan;100556.31;5022068;28;20095;-75
2021/08/15 02:13:54;;;;;;;6.47;5.20;;;;;;;19.48;nan;100561.88;5043237;28;20043;-75
2021/08/15 02:16:20;;;;;;;5.95;4.90;;;;;;;19.42;nan;100556.50;5019257;28;20437;-75
2021/08/15 02:18:47;;;;;;;6.05;4.95;;;;;;;19.37;nan;100567.03;5029267;28;20056;-75
2021/08/15 02:21:13;;;;;;;5.80;4.53;;;;;;;19.34;nan;100552.19;5039924;28;20037;-75
2021/08/15 02:23:41;;;;;;;5.80;4.38;;;;;;;19.34;nan;100554.06;5041572;28;20029;-75
2021/08/15 02:26:08;;;;;;;7.38;5.70;;;;;;;19.27;nan;100554.88;5025325;28;20041;-75
2021/08/15 02:28:34;;;;;;;6.25;4.95;;;;;;;19.24;nan;100546.44;5040693;28;20416;-75
2021/08/15 02:31:00;;;;;;;7.20;5.68;;;;;;;19.15;nan;100551.19;5039607;28;20275;-75
2021/08/15 02:33:26;;;;;;;7.40;5.90;;;;;;;19.07;nan;100544.19;5029414;28;20090;-75
2021/08/15 02:35:53;;;;;;;6.65;5.50;;;;;;;19.00;nan;100543.38;5026131;28;20034;-75
2021/08/15 02:38:22;;;;;;;7.30;5.75;;;;;;;19.03;nan;100544.81;5024684;28;20037;-75
2021/08/15 02:40:50;;;;;;;7.22;5.72;;;;;;;19.01;nan;100546.88;5034153;28;20120;-75
2021/08/15 02:43:17;;;;;;;7.25;5.60;;;;;;;19.03;nan;100545.63;5024337;28;20102;-75
2021/08/15 02:45:43;;;;;;;6.65;5.20;;;;;;;18.94;nan;100554.09;5044811;28;20039;-75
2021/08/15 02:48:09;;;;;;;7.43;5.32;;;;;;;18.94;nan;100556.75;5036268;28;20412;-75
2021/08/15 02:50:35;;;;;;;7.18;5.22;;;;;;;18.93;nan;100549.75;5046575;28;20512;-75
2021/08/15 02:53:01;;;;;;;7.72;5.13;;;;;;;18.86;nan;100550.56;5013849;28;20034;-75
2021/08/15 02:55:28;;;;;;;7.13;4.57;;;;;;;18.91;nan;100557.19;5050699;28;20037;-75
2021/08/15 02:57:54;;;;;;;8.38;5.53;;;;;;;18.88;nan;100561.09;5050479;28;20071;-75
2021/08/15 03:00:19;;;;;;;7.22;5.10;;;;;;;18.87;nan;100557.56;5032625;28;20111;-75
2021/08/15 03:02:44;;;;;;;9.30;6.35;;;;;;;18.80;nan;100562.09;5047947;28;20037;-75
2021/08/15 03:05:11;;;;;;;8.80;6.20;;;;;;;18.71;nan;100565.16;5048438;28;20190;-75
2021/08/15 03:07:36;;;;;;;8.82;5.82;;;;;;;18.60;nan;100563.91;5042372;28;20120;-75
2021/08/15 03:10:03;;;;;;;6.70;5.00;;;;;;;18.56;nan;100560.81;5039836;28;20090;-75
2021/08/15 03:12:28;;;;;;;7.07;5.00;;;;;;;18.53;nan;100561.22;5045780;28;20041;-75
2021/08/15 03:14:53;;;;;;;7.45;4.63;;;;;;;18.51;nan;100549.06;5037744;28;20528;-75
2021/08/15 03:17:19;;;;;;;6.38;5.07;;;;;;;18.55;nan;100558.34;5033115;28;20112;-75
2021/08/15 03:19:44;;;;;;;5.95;4.70;;;;;;;18.57;nan;100553.63;5032768;28;20029;-75
2021/08/15 03:22:10;;;;;;;7.10;5.20;;;;;;;18.58;nan;100548.03;5046404;28;20056;-75
2021/08/15 03:24:35;;;;;;;6.82;5.50;;;;;;;18.62;nan;100543.13;5035578;28;20033;-75
2021/08/15 03:27:01;;;;;;;7.15;5.30;;;;;;;18.59;nan;100541.66;5041640;28;20041;-75
2021/08/15 03:29:27;;;;;;;6.78;4.78;;;;;;;18.57;nan;100537.56;5033675;28;20501;-75
2021/08/15 03:31:52;;;;;;;8.57;5.57;;;;;;;18.56;nan;100535.88;5034697;28;20049;-75
2021/08/15 03:34:21;;;;;;;7.25;4.93;;;;;;;18.55;nan;100534.25;5031086;28;20033;-75
2021/08/15 03:36:47;;;;;;;7.75;5.60;;;;;;;18.46;nan;100531.75;5050597;28;20370;-76
2021/08/15 03:39:13;;;;;;;8.00;5.75;;;;;;;18.36;nan;100530.50;5032695;28;20414;-76
2021/08/15 03:41:38;;;;;;;7.75;5.32;;;;;;;18.32;nan;100526.56;5049943;28;20035;-75
2021/08/15 03:44:04;;;;;;;7.40;5.28;;;;;;;18.36;nan;100528.66;5041140;28;20167;-76
2021/08/15 03:46:29;;;;;;;6.03;4.15;;;;;;;18.44;nan;100531.13;5042752;28;20068;-76
2021/08/15 03:48:54;;;;;;;7.28;5.07;;;;;;;18.48;nan;100528.06;5037686;28;20033;-76
2021/08/15 03:51:20;;;;;;;7.28;4.97;;;;;;;18.49;nan;100530.50;5049855;28;20121;-76
2021/08/15 03:53:45;;;;;;;6.53;4.70;;;;;;;18.49;nan;100527.03;5044052;28;20457;-76
2021/08/15 03:56:10;;;;;;;7.40;4.80;;;;;;;18.49;nan;100535.88;5041146;28;20112;-75
2021/08/15 03:58:36;;;;;;;6.30;4.32;;;;;;;18.56;nan;100539.38;5044672;28;20030;-76
2021/08/15 04:01:01;;;;;;;5.55;4.25;;;;;;;18.65;nan;100531.97;5030188;28;20125;-75
2021/08/15 04:03:27;;;;;;;6.85;4.35;;;;;;;18.71;nan;100543.72;5040016;28;20108;-76
2021/08/15 04:05:55;;;;;;;5.30;4.32;;;;;;;18.70;nan;100537.56;5049641;28;20423;-76
2021/08/15 04:08:21;;;;;;;5.10;4.00;;;;;;;18.71;nan;100541.03;5043328;28;20051;-76
2021/08/15 04:10:46;;;;;;;6.15;4.07;;;;;;;18.71;nan;100543.72;5018229;28;20034;-76
2021/08/15 04:13:12;;;;;;;6.40;4.80;;;;;;;18.71;nan;100541.91;5031113;28;20445;-76
2021/08/15 04:15:37;;;;;;;6.97;4.88;;;;;;;18.71;nan;100531.19;5042198;28;20030;-75
2021/08/15 04:18:02;;;;;;;6.68;4.88;;;;;;;18.65;nan;100548.06;5040723;28;20485;-76
2021/08/15 04:20:27;;;;;;;7.22;4.75;;;;;;;18.60;nan;100545.16;5042221;28;20112;-76
2021/08/15 04:22:53;;;;;;;7.63;5.50;;;;;;;18.57;nan;100537.56;5040969;28;20037;-76
2021/08/15 04:25:18;;;;;;;5.93;4.35;;;;;;;18.53;nan;100547.00;5049904;28;20561;-75
2021/08/15 04:27:44;;;;;;;6.53;4.72;;;;;;;18.56;nan;100557.31;5050224;28;20032;-75
2021/08/15 04:30:10;;;;;;;6.68;4.78;;;;;;;18.50;nan;100555.47;5027973;28;20086;-76
2021/08/15 04:32:35;;;;;;;7.80;5.07;;;;;;;18.52;nan;100550.69;5042431;28;20033;-75
2021/08/15 04:35:01;;;;;;;8.57;5.68;;;;;;;18.46;nan;100547.00;5046929;28;20044;-75
2021/08/15 04:37:26;;;;;;;7.95;5.72;;;;;;;18.45;nan;100542.69;5034546;28;20029;-75
2021/08/15 04:39:52;;;;;;;6.85;4.75;;;;;;;18.43;nan;100534.84;5049438;28;20043;-75
2021/08/15 04:42:18;;;;;;;6.70;4.57;;;;;;;18.38;nan;100534.63;5041313;28;20021;-75
2021/08/15 04:44:43;;;;;;;7.65;4.53;;;;;;;18.40;nan;100540.59;5039075;28;20086;-75
2021/08/15 04:47:09;;;;;;;7.10;4.68;;;;;;;18.42;nan;100546.59;5049449;28;20171;-75
2021/08/15 04:49:34;;;;;;;6.15;4.72;;;;;;;18.41;nan;100544.91;5044707;28;20731;-75
2021/08/15 04:51:59;;;;;;;7.23;4.70;;;;;;;18.38;nan;100542.66;5033834;28;20072;-75
2021/08/15 04:54:27;;;;;;;6.22;4.60;;;;;;;18.36;nan;100544.72;5032381;28;20883;-75
2021/08/15 04:56:54;;;;;;;7.70;4.60;;;;;;;18.35;nan;100542.22;5033427;28;20135;-75
2021/08/15 04:59:19;;;;;;;7.35;4.72;;;;;;;18.34;nan;100553.97;5027689;28;20029;-75
2021/08/15 05:01:44;;;;;;;6.20;4.15;;;;;;;18.41;nan;100552.13;5032666;28;20374;-75
2021/08/15 05:04:09;;;;;;;7.45;4.70;;;;;;;18.47;nan;100551.31;5028509;28;20044;-75
2021/08/15 05:06:35;;;;;;;9.00;4.90;;;;;;;18.53;nan;100555.03;5042844;28;20034;-75
2021/08/15 05:09:00;;;;;;;7.93;5.07;;;;;;;18.55;nan;100561.84;5030064;28;20037;-75
2021/08/15 05:11:25;;;;;;;6.53;3.80;;;;;;;18.63;nan;100556.28;5036782;28;20045;-75
2021/08/15 05:13:51;;;;;;;5.40;3.72;;;;;;;18.73;nan;100553.19;5030809;28;20450;-75
2021/08/15 05:16:16;;;;;;;4.57;3.40;;;;;;;18.82;nan;100553.88;5020721;28;20030;-75
2021/08/15 05:18:41;;;;;;;7.47;4.50;;;;;;;18.90;nan;100548.28;5054800;28;20064;-75
2021/08/15 05:21:07;;;;;;;6.10;3.85;;;;;;;18.91;nan;100547.28;5051131;28;20041;-75
2021/08/15 05:23:32;;;;;;;5.35;3.90;;;;;;;18.91;nan;100547.28;5044647;28;20330;-75
2021/08/15 05:25:58;;;;;;;6.15;3.80;;;;;;;18.94;nan;100546.88;5039410;28;20061;-75
2021/08/15 05:28:23;;;;;;;5.72;3.97;;;;;;;19.06;nan;100552.44;5031858;28;20044;-75
2021/08/15 05:30:48;;;;;;;6.15;4.13;;;;;;;19.10;nan;100548.31;5032869;28;20034;-75
2021/08/15 05:33:13;;;;;;;7.90;4.20;;;;;;;19.16;nan;100544.78;5024330;28;20034;-75
2021/08/15 05:35:39;;;;;;;6.55;4.50;;;;;;;19.27;nan;100546.03;5021283;28;20459;-75
2021/08/15 05:38:04;;;;;;;7.70;4.38;;;;;;;19.38;nan;100539.19;5045581;28;20048;-75
2021/08/15 05:40:30;;;;;;;6.35;4.13;;;;;;;19.62;nan;100537.72;5046708;28;20029;-75
2021/08/15 05:42:55;;;;;;;6.45;4.03;;;;;;;19.91;nan;100547.13;5033768;28;20037;-75
2021/08/15 05:45:20;;;;;;;5.30;3.43;;;;;;;20.26;nan;100546.72;5034532;28;20485;-76
2021/08/15 05:47:46;;;;;;;5.53;3.55;;;;;;;20.58;nan;100545.75;5047884;28;20272;-75
2021/08/15 05:50:11;;;;;;;5.78;3.75;;;;;;;20.94;nan;100546.91;5045700;28;20040;-76
2021/08/15 05:52:37;;;;;;;4.68;3.47;;;;;;;21.04;nan;100542.91;5047073;28;20036;-75
2021/08/15 05:55:03;;;;;;;6.53;4.30;;;;;;;21.24;nan;100546.25;5043429;28;20501;-75
2021/08/15 05:57:28;;;;;;;8.20;4.72;;;;;;;21.21;nan;100539.44;5034727;28;20080;-75
2021/08/15 05:59:53;;;;;;;7.80;4.77;;;;;;;21.48;nan;100541.09;5043737;28;20040;-75
2021/08/15 06:02:19;;;;;;;6.93;4.30;;;;;;;21.80;nan;100536.34;5030880;28;20279;-75
2021/08/15 06:04:44;;;;;;;5.90;4.13;;;;;;;21.95;nan;100533.25;5047282;28;20119;-75
2021/08/15 06:07:11;;;;;;;6.78;4.13;;;;;;;22.22;nan;100531.91;5042485;28;20513;-75
2021/08/15 06:09:36;;;;;;;7.07;4.43;;;;;;;22.38;nan;100537.69;5035083;28;20044;-75
2021/08/15 06:12:05;;;;;;;6.47;3.80;;;;;;;22.53;nan;100535.41;5027830;28;20034;-76
2021/08/15 06:14:30;;;;;;;6.10;3.90;;;;;;;22.59;nan;100542.53;5036318;28;20112;-76
2021/08/15 06:16:56;;;;;;;5.20;3.90;;;;;;;22.52;nan;100541.00;5046293;28;20152;-75
2021/08/15 06:19:21;;;;;;;5.88;3.72;;;;;;;22.64;nan;100534.63;5037030;28;20401;-75
2021/08/15 06:21:46;;;;;;;7.27;3.90;;;;;;;22.89;nan;100534.41;5041872;28;20060;-75
2021/08/15 06:24:11;;;;;;;6.33;4.10;;;;;;;23.06;nan;100534.56;5036217;28;20342;-75
2021/08/15 06:26:37;;;;;;;5.57;4.10;;;;;;;23.35;nan;100531.97;5028962;28;20394;-76
2021/08/15 06:29:02;;;;;;;8.30;4.13;;;;;;;23.64;nan;100534.72;5050782;28;20388;-75
2021/08/15 06:31:27;;;;;;;5.03;3.33;;;;;;;24.10;nan;100525.72;5033686;28;20071;-76
2021/08/15 06:33:53;;;;;;;5.07;3.65;;;;;;;24.58;nan;100526.31;5033543;28;20040;-76
2021/08/15 06:36:19;;;;;;;7.03;3.75;;;;;;;24.89;nan;100527.63;5039652;28;20304;-75
2021/08/15 06:38:44;;;;;;;6.05;3.38;;;;;;;25.07;nan;100529.25;5031701;28;20034;-76
2021/08/15 06:41:09;;;;;;;5.07;3.23;;;;;;;25.30;nan;100525.56;5048133;28;20087;-76
2021/08/15 06:43:35;;;;;;;5.15;3.45;;;;;;;25.46;nan;100532.00;5045011;28;20280;-76
2021/08/15 06:46:00;;;;;;;3.80;2.50;;;;;;;25.72;nan;100527.72;5037327;28;20472;-76
2021/08/15 06:48:26;;;;;;;4.67;3.30;;;;;;;25.79;nan;100522.09;5032286;28;20525;-75
2021/08/15 06:50:54;;;;;;;4.10;3.10;;;;;;;25.90;nan;100529.31;5047353;28;20801;-76
2021/08/15 06:53:21;;;;;;;4.50;2.70;;;;;;;26.22;nan;100531.31;5046022;28;20407;-76
2021/08/15 06:55:47;;;;;;;3.03;2.30;;;;;;;26.64;nan;100528.72;5030713;28;20463;-75
2021/08/15 06:58:12;;;;;;;;;;;;;;;26.79;nan;100528.03;5039128;28;20195;-76
2021/08/15 07:00:37;;;;;;;;;;;;;;;26.92;nan;100520.53;5032513;28;19986;-76
2021/08/15 07:03:02;;;;;;;5.93;3.53;;;;;;;27.20;nan;100520.19;5049353;28;19916;-76
2021/08/15 07:05:28;;;;;;;3.97;2.60;;;;;;;27.54;nan;100530.69;5039253;22;20512;-75
2021/08/15 07:07:53;;;;;;;3.80;2.80;;;;;;;27.58;nan;100528.25;4991910;28;20412;-75
2021/08/15 07:10:18;;;;;;;3.50;2.20;;;;;;;27.86;nan;100525.13;5024886;28;20410;-75
2021/08/15 07:12:44;;;;;;;3.80;2.67;;;;;;;28.10;nan;100525.47;5030300;28;20399;-75
2021/08/15 07:15:09;;;;;;;4.17;2.40;;;;;;;28.07;nan;100525.19;5029371;28;20419;-76
2021/08/15 07:17:36;;;;;;;5.43;3.30;;;;;;;28.31;nan;100526.31;5030816;28;20036;-74
2021/08/15 07:20:06;;;;;;;5.60;3.05;;;;;;;28.08;nan;100522.22;5030871;28;20041;-75
2021/08/15 07:22:31;;;;;;;7.68;3.28;;;;;;;27.47;nan;100522.78;5013173;28;19921;-73
2021/08/15 07:24:56;;;;;;;3.73;2.50;;;;;;;27.31;nan;100521.88;5012309;28;20388;-75
2021/08/15 07:27:22;;;;;;;;;;;;;;;27.04;nan;100518.44;5030785;28;20443;-73
2021/08/15 07:29:47;;;;;;;4.77;3.30;;;;;;;27.04;nan;100507.56;5031447;28;19917;-73
2021/08/15 07:32:12;;;;;;;5.40;3.00;;;;;;;27.50;nan;100516.00;5013137;28;20042;-73
2021/08/15 07:34:38;;;;;;;5.93;3.50;;;;;;;27.76;nan;100508.75;5012814;28;20045;-73
2021/08/15 07:37:03;;;;;;;3.47;2.30;;;;;;;27.88;nan;100505.84;5029463;28;20514;-75
2021/08/15 07:39:28;;;;;;;;;;;;;;;27.58;nan;100501.91;5030987;28;20810;-73
2021/08/15 07:41:53;;;;;;;;;;;;;;;27.74;nan;100497.34;5031288;28;19967;-74
2021/08/15 07:44:19;;;;;;;5.70;3.27;;;;;;;28.20;nan;100497.50;5012433;28;20339;-75
2021/08/15 07:46:44;;;;;;;;;;;;;;;28.36;nan;100493.72;5031136;28;20057;-74
2021/08/15 07:49:10;;;;;;;;;;;;;;;28.45;nan;100493.16;5031158;28;20011;-74
2021/08/15 07:51:35;;;;;;;;;;;;;;;28.36;nan;100485.53;5013052;28;20009;-73
2021/08/15 07:54:01;;;;;;;;;;;;;;;28.49;nan;100488.84;5013033;28;19921;-74
2021/08/15 07:56:26;;;;;;;;;;;;;;;28.70;nan;100492.34;5030050;28;19925;-74
2021/08/15 07:58:51;;;;;;;4.57;2.53;;;;;;;29.26;nan;100495.00;5012796;28;19920;-74
2021/08/15 08:01:17;;;;;;;5.35;3.08;;;;;;;29.31;nan;100500.41;5030716;28;20029;-74
2021/08/15 08:03:43;;;;;;;6.25;3.00;;;;;;;28.55;nan;100493.19;5029813;28;20026;-73
2021/08/15 08:06:08;;;;;;;3.43;2.50;;;;;;;28.57;nan;100493.72;5028705;28;20403;-73
2021/08/15 08:08:33;;;;;;;6.15;3.17;;;;;;;29.00;nan;100483.31;5030611;28;20156;-73
2021/08/15 08:10:59;;;;;;;;;;;;;;;29.05;nan;100485.22;5030872;28;20057;-74
2021/08/15 08:13:24;;;;;;;;;;;;;;;29.67;nan;100491.31;5029137;28;19916;-74
2021/08/15 08:15:50;;;;;;;;;;;;;;;30.34;nan;100489.00;5030664;28;20381;-74
2021/08/15 08:18:15;;;;;;;;;;;;;;;30.69;nan;100485.16;5029731;28;20024;-74
2021/08/15 08:20:40;;;;;;;;;;;;;;;30.86;nan;100482.03;5031009;28;19932;-74
2021/08/15 08:23:06;;;;;;;;;;;;;;;31.03;nan;100485.09;5027975;28;19920;-74
2021/08/15 08:25:32;;;;;;;;;;;;;;;31.70;nan;100487.06;5011227;28;20409;-74
2021/08/15 08:27:57;;;;;;;;;;;;;;;32.17;nan;100486.13;5023524;28;19955;-74
2021/08/15 08:30:22;;;;;;;6.80;3.20;;;;;;;32.20;nan;100472.97;5029693;28;19916;-74
2021/08/15 08:32:48;;;;;;;4.65;2.95;;;;;;;32.41;nan;100476.19;5029825;28;20376;-74
2021/08/15 08:35:13;;;;;;;5.75;2.95;;;;;;;32.58;nan;100470.97;5030024;28;20042;-73
2021/08/15 08:37:38;;;;;;;5.38;2.83;;;;;;;32.66;nan;100467.56;5029893;28;20030;-74
2021/08/15 08:40:05;;;;;;;3.83;2.42;;;;;;;32.94;nan;100476.63;5030253;28;20033;-73
2021/08/15 08:42:31;;;;;;;4.47;2.55;;;;;;;33.36;nan;100476.66;5029560;28;20048;-74
2021/08/15 08:45:01;;;;;;;5.05;2.88;;;;;;;33.54;nan;100472.19;5029264;28;20029;-74
2021/08/15 08:47:27;;;;;;;4.60;2.70;;;;;;;33.73;nan;100477.53;5011353;28;20116;-74
2021/08/15 08:49:53;;;;;;;;;;;;;;;34.04;nan;100481.19;5028608;28;20091;-74
2021/08/15 08:52:20;;;;;;;5.13;2.72;;;;;;;33.92;nan;100483.69;5028973;28;19913;-74
2021/08/15 08:54:45;;;;;;;4.45;2.40;;;;;;;34.15;nan;100475.50;5027134;28;20033;-74
2021/08/15 08:57:11;;;;;;;4.30;2.53;;;;;;;34.17;nan;100465.03;5018624;28;20046;-74
2021/08/15 08:59:37;;;;;;;4.23;2.43;;;;;;;34.66;nan;100460.50;4992686;28;20847;-74
2021/08/15 09:02:03;;;;;;;5.68;2.47;;;;;;;34.71;nan;100468.63;5012907;28;20681;-74
2021/08/15 09:04:28;;;;;;;5.90;2.80;;;;;;;34.60;nan;100464.50;5012266;28;20060;-74
2021/08/15 09:06:54;;;;;;;4.80;2.80;;;;;;;34.28;nan;100460.06;5029703;28;20037;-74
2021/08/15 09:09:20;;;;;;;4.70;2.50;;;;;;;34.32;nan;100453.66;5029661;28;20071;-74
2021/08/15 09:11:48;;;;;;;3.97;2.80;;;;;;;34.57;nan;100454.94;5028149;28;20037;-74
2021/08/15 09:14:26;;;;;;;4.30;2.40;;;;;;;34.74;nan;100456.19;5011318;28;20029;-74
2021/08/15 09:16:55;;;;;;;4.40;2.40;;;;;;;34.99;nan;100451.91;5029844;28;20073;-74
2021/08/15 09:19:27;;;;;;;4.05;2.50;;;;;;;35.05;nan;100442.41;5010702;28;20040;-74
2021/08/15 09:22:10;;;;;;;2.97;2.00;;;;;;;35.30;nan;100440.84;5023522;28;20096;-74
2021/08/15 09:24:52;;;;;;;4.90;2.70;;;;;;;34.80;nan;100436.50;5029709;28;20036;-74
2021/08/15 09:27:22;;;;;;;3.63;2.40;;;;;;;34.01;nan;100431.63;4999671;28;20041;-74
2021/08/15 09:30:09;;;;;;;3.88;2.20;;;;;;;33.68;nan;100428.28;5019657;28;20080;-75
2021/08/15 09:32:36;;;;;;;3.83;2.15;;;;;;;33.26;nan;100420.13;5027614;28;20039;-74
2021/08/15 09:35:03;;;;;;;3.05;1.98;;;;;;;33.37;nan;100424.28;5028707;28;20379;-74
2021/08/15 09:37:33;;;;;;;4.13;2.28;;;;;;;33.31;nan;100424.69;5028976;28;20029;-74
2021/08/15 09:39:58;;;;;;;5.03;2.63;;;;;;;33.07;nan;100420.25;5027568;28;20291;-74
2021/08/15 09:42:44;;;;;;;3.13;2.10;;;;;;;33.12;nan;100424.81;5022955;28;20061;-74
2021/08/15 09:45:14;;;;;;;4.78;2.60;;;;;;;32.74;nan;100424.97;5027623;28;20045;-74
2021/08/15 09:47:40;;;;;;;3.00;2.10;;;;;;;32.24;nan;100420.09;5029124;28;20429;-74
2021/08/15 09:50:23;;;;;;;4.10;2.05;;;;;;;32.10;nan;100421.97;5028195;28;20398;-75
2021/08/15 09:52:50;;;;;;;4.72;2.17;;;;;;;31.85;nan;100428.63;5013679;28;20317;-74
2021/08/15 09:55:15;;;;;;;5.35;2.50;;;;;;;31.65;nan;100416.06;5009402;28;20564;-74
2021/08/15 09:57:42;;;;;;;4.30;2.17;;;;;;;31.77;nan;100415.63;5027704;28;20037;-74
2021/08/15 10:00:22;;;;;;;5.28;2.25;;;;;;;32.05;nan;100419.31;4995624;28;20049;-74
2021/08/15 10:02:48;;;;;;;3.53;1.92;;;;;;;31.91;nan;100417.31;5021731;28;20060;-74
2021/08/15 10:05:14;;;;;;;3.50;2.30;;;;;;;31.71;nan;100418.44;5028896;28;20034;-74
2021/08/15 10:07:41;;;;;;;3.78;2.20;;;;;;;31.58;nan;100410.16;5027812;28;20033;-73
2021/08/15 10:10:06;;;;;;;3.00;2.10;;;;;;;31.53;nan;100405.56;5005903;28;20034;-79
2021/08/15 10:12:33;;;;;;;3.78;2.30;;;;;;;31.88;nan;100400.69;5027048;28;20536;-76
2021/08/15 10:14:59;;;;;;;3.35;2.20;;;;;;;31.71;nan;100393.81;5026703;28;20099;-76
2021/08/15 10:17:28;;;;;;;4.18;2.33;;;;;;;31.79;nan;100394.25;5023420;28;20426;-76
2021/08/15 10:20:00;;;;;;;3.05;1.88;;;;;;;31.36;nan;100389.66;5009451;28;20034;-77
2021/08/15 10:22:28;;;;;;;4.43;2.05;;;;;;;31.04;nan;100393.09;5019516;28;20046;-76
2021/08/15 10:24:56;;;;;;;2.53;2.00;;;;;;;30.84;nan;100389.50;5026677;28;20140;-77
2021/08/15 10:27:40;;;;;;;4.15;2.50;;;;;;;30.91;nan;100383.66;5026991;28;20868;-76
2021/08/15 10:30:20;;;;;;;3.33;2.15;;;;;;;31.00;nan;100389.31;5022193;28;20034;-76
2021/08/15 10:32:54;;;;;;;3.80;2.30;;;;;;;31.00;nan;100383.84;5022889;28;20045;-77
2021/08/15 10:35:24;;;;;;;3.85;2.35;;;;;;;31.03;nan;100375.88;5017332;28;20034;-76
2021/08/15 10:38:01;;;;;;;3.70;2.20;;;;;;;30.69;nan;100370.53;5026950;28;20603;-76
2021/08/15 10:40:38;;;;;;;4.28;2.30;;;;;;;30.69;nan;100371.31;5026743;28;20078;-76
2021/08/15 10:43:10;;;;;;;4.20;2.20;;;;;;;30.66;nan;100366.47;5009365;28;20044;-76
2021/08/15 10:45:36;;;;;;;3.63;2.00;;;;;;;30.67;nan;100368.06;5026636;28;20033;-77
2021/08/15 10:48:04;;;;;;;4.53;2.33;;;;;;;30.51;nan;100368.53;5026478;28;20029;-76
2021/08/15 10:50:52;;;;;;;4.72;2.20;;;;;;;30.60;nan;100367.59;5008823;28;20041;-76
2021/08/15 10:53:26;;;;;;;4.13;2.40;;;;;;;30.57;nan;100362.75;5008797;28;20037;-76
2021/08/15 10:55:59;;;;;;;4.18;1.85;;;;;;;30.41;nan;100353.09;5026171;28;20091;-76
2021/08/15 10:58:34;;;;;;;;;;;;;;;30.44;nan;100353.34;5019242;28;20045;-75
2021/08/15 11:00:59;;;;;;;;;;;;;;;30.26;nan;100351.31;5027302;28;19913;-75
2021/08/15 11:03:24;;;;;;;;;;;;;;;30.26;nan;100338.50;5027070;28;19928;-77
2021/08/15 11:05:50;;;;;;;4.90;2.13;;;;;;;30.36;nan;100337.56;5026749;28;19923;-76
2021/08/15 11:08:33;;;;;;;3.15;1.98;;;;;;;30.25;nan;100336.88;5023635;28;20034;-76
2021/08/15 11:11:17;;;;;;;2.90;1.60;;;;;;;30.19;nan;100323.53;5007594;28;20420;-76
2021/08/15 11:13:43;;;;;;;3.15;2.13;;;;;;;30.13;nan;100320.06;5027645;28;20033;-76
2021/08/15 11:16:26;;;;;;;2.70;1.80;;;;;;;30.31;nan;100328.66;5029976;28;20033;-76
2021/08/15 11:19:07;;;;;;;4.97;2.10;;;;;;;30.28;nan;100327.31;5026339;28;20050;-76
2021/08/15 11:22:10;;;;;;;2.47;1.63;;;;;;;30.41;nan;100325.78;5012254;28;20068;-76
2021/08/15 11:24:44;;;;;;;2.63;1.67;;;;;;;30.36;nan;100329.41;5024112;28;20071;-76
2021/08/15 11:27:30;;;;;;;2.17;1.40;;;;;;;30.52;nan;100321.88;5011936;28;20042;-76
2021/08/15 11:29:58;;;;;;;2.35;1.27;;;;;;;30.55;nan;100317.75;5029439;28;20038;-76
2021/08/15 11:32:31;;;;;;;2.45;1.48;;;;;;;30.66;nan;100322.78;5029679;28;20033;-76
2021/08/15 11:35:02;;;;;;;2.65;1.60;;;;;;;30.55;nan;100313.09;5029940;28;20065;-75
2021/08/15 11:37:31;;;;;;;2.40;1.63;;;;;;;30.48;nan;100301.72;5030024;28;20029;-75
2021/08/15 11:40:21;;;;;;;2.72;1.90;;;;;;;30.56;nan;100295.63;5028924;28;20057;-77
2021/08/15 11:43:01;;;;;;;3.00;1.80;;;;;;;30.71;nan;100293.81;5019710;28;20033;-79
2021/08/15 11:45:30;;;;;;;3.03;1.90;;;;;;;30.75;nan;100286.66;5030002;28;20341;-76
2021/08/15 11:47:55;;;;;;;2.70;1.80;;;;;;;30.80;nan;100279.22;5017955;28;20509;-76